ルレオ の空港の天気 - METARとTAF

Lulea / Kallax ( ESPA / LLA ) - スウェーデン ルレオ
飛行場実況気象(Metar)
観測時間04/25 18:20 CEST (04/25 16:20 UTC)
風向・風速東北東 3m/s
視程10km以上
天気現象
なし
気温6℃
湿度52%
気圧1007hPa
METARESPA 251620Z 07006KT 030V120 CAVOK 06/M03 Q1007
過去の天気等 Google飛行場航空写真 Wunderground天気予報

過去48時間のMETAR

飛行場予報(TAF)
発表時間: 4/25 16:10 CEST (4/25 14:10 UTC)
予報対象時間: 25日17時 CEST ~ 26日0時 CEST
風向・風速東 3m/s
視程10km以上
なし
TAF ESPA 251410Z 2515/2522 09006KT CAVOK